sensor_id;sensor_type;location;lat;lon;timestamp;pressure;altitude;pressure_sealevel;temperature;humidity
28344;BME280;15597;50.914;6.638;2023-04-01T00:00:58;98688.00;;;14.25;59.21
28344;BME280;15597;50.914;6.638;2023-04-01T00:03:24;98692.53;;;14.23;58.94
28344;BME280;15597;50.914;6.638;2023-04-01T00:05:52;98678.44;;;14.24;58.92
28344;BME280;15597;50.914;6.638;2023-04-01T00:08:18;98690.63;;;14.25;58.95
28344;BME280;15597;50.914;6.638;2023-04-01T00:10:44;98687.25;;;14.23;59.48
28344;BME280;15597;50.914;6.638;2023-04-01T00:13:09;98684.63;;;14.23;58.93
28344;BME280;15597;50.914;6.638;2023-04-01T00:15:35;98692.31;;;14.26;59.02
28344;BME280;15597;50.914;6.638;2023-04-01T00:18:01;98681.69;;;14.27;59.04
28344;BME280;15597;50.914;6.638;2023-04-01T00:20:28;98686.84;;;14.29;59.30
28344;BME280;15597;50.914;6.638;2023-04-01T00:22:53;98686.09;;;14.27;59.05
28344;BME280;15597;50.914;6.638;2023-04-01T00:25:19;98681.78;;;14.26;58.79
28344;BME280;15597;50.914;6.638;2023-04-01T00:27:45;98681.88;;;14.24;59.09
28344;BME280;15597;50.914;6.638;2023-04-01T00:30:11;98676.63;;;14.24;59.26
28344;BME280;15597;50.914;6.638;2023-04-01T00:32:37;98672.09;;;14.26;58.99
28344;BME280;15597;50.914;6.638;2023-04-01T00:35:03;98664.94;;;14.28;58.64
28344;BME280;15597;50.914;6.638;2023-04-01T00:37:28;98669.47;;;14.26;59.01
28344;BME280;15597;50.914;6.638;2023-04-01T00:39:54;98666.00;;;14.26;58.80
28344;BME280;15597;50.914;6.638;2023-04-01T00:42:20;98667.91;;;14.24;59.02
28344;BME280;15597;50.914;6.638;2023-04-01T00:44:52;98661.16;;;14.20;59.12
28344;BME280;15597;50.914;6.638;2023-04-01T00:47:18;98660.31;;;14.19;58.97
28344;BME280;15597;50.914;6.638;2023-04-01T00:49:48;98668.53;;;14.14;59.22
28344;BME280;15597;50.914;6.638;2023-04-01T00:52:17;98666.84;;;14.13;58.99
28344;BME280;15597;50.914;6.638;2023-04-01T00:54:46;98666.84;;;14.13;59.01
28344;BME280;15597;50.914;6.638;2023-04-01T00:57:27;98668.00;;;14.09;58.99
28344;BME280;15597;50.914;6.638;2023-04-01T00:59:55;98666.84;;;14.13;59.16
28344;BME280;15597;50.914;6.638;2023-04-01T01:02:21;98670.41;;;14.12;59.09
28344;BME280;15597;50.914;6.638;2023-04-01T01:04:47;98665.38;;;14.09;59.39
28344;BME280;15597;50.914;6.638;2023-04-01T01:07:27;98659.44;;;14.06;59.39
28344;BME280;15597;50.914;6.638;2023-04-01T01:15:37;98672.94;;;14.01;59.49
28344;BME280;15597;50.914;6.638;2023-04-01T01:18:14;98674.81;;;13.99;59.36
28344;BME280;15597;50.914;6.638;2023-04-01T01:23:38;98670.50;;;13.98;59.86
28344;BME280;15597;50.914;6.638;2023-04-01T01:36:41;98653.97;;;13.96;59.94
28344;BME280;15597;50.914;6.638;2023-04-01T01:39:12;98660.28;;;13.93;60.27
28344;BME280;15597;50.914;6.638;2023-04-01T01:41:41;98667.34;;;13.93;60.04
28344;BME280;15597;50.914;6.638;2023-04-01T01:44:11;98663.09;;;13.90;60.39
28344;BME280;15597;50.914;6.638;2023-04-01T01:46:38;98655.13;;;13.92;60.49
28344;BME280;15597;50.914;6.638;2023-04-01T01:49:10;98653.34;;;13.92;59.98
28344;BME280;15597;50.914;6.638;2023-04-01T01:51:37;98657.75;;;13.92;60.47
28344;BME280;15597;50.914;6.638;2023-04-01T01:54:05;98658.78;;;13.89;60.13
28344;BME280;15597;50.914;6.638;2023-04-01T01:56:32;98651.22;;;13.84;60.29
28344;BME280;15597;50.914;6.638;2023-04-01T01:59:03;98650.50;;;13.82;60.40
28344;BME280;15597;50.914;6.638;2023-04-01T02:01:35;98653.13;;;13.82;60.40
28344;BME280;15597;50.914;6.638;2023-04-01T02:04:11;98648.59;;;13.84;60.36
28344;BME280;15597;50.914;6.638;2023-04-01T02:06:41;98640.59;;;13.86;60.49
28344;BME280;15597;50.914;6.638;2023-04-01T02:09:10;98644.28;;;13.83;59.85
28344;BME280;15597;50.914;6.638;2023-04-01T02:11:40;98633.13;;;13.80;60.56
28344;BME280;15597;50.914;6.638;2023-04-01T02:19:17;98645.44;;;13.79;60.10
28344;BME280;15597;50.914;6.638;2023-04-01T02:21:53;98643.84;;;13.77;60.40
28344;BME280;15597;50.914;6.638;2023-04-01T02:24:23;98648.22;;;13.76;60.15
28344;BME280;15597;50.914;6.638;2023-04-01T02:26:51;98637.56;;;13.79;60.44
28344;BME280;15597;50.914;6.638;2023-04-01T02:29:19;98642.81;;;13.79;60.03
28344;BME280;15597;50.914;6.638;2023-04-01T02:31:46;98646.19;;;13.81;60.30
28344;BME280;15597;50.914;6.638;2023-04-01T02:34:13;98639.22;;;13.80;60.04
28344;BME280;15597;50.914;6.638;2023-04-01T02:36:39;98639.22;;;13.80;60.37
28344;BME280;15597;50.914;6.638;2023-04-01T02:39:05;98648.06;;;13.79;60.43
28344;BME280;15597;50.914;6.638;2023-04-01T02:41:39;98649.09;;;13.77;60.47
28344;BME280;15597;50.914;6.638;2023-04-01T02:44:05;98640.19;;;13.79;60.00
28344;BME280;15597;50.914;6.638;2023-04-01T02:46:31;98639.22;;;13.80;60.13
28344;BME280;15597;50.914;6.638;2023-04-01T02:48:56;98642.81;;;13.79;60.53
28344;BME280;15597;50.914;6.638;2023-04-01T02:51:22;98648.06;;;13.79;60.08
28344;BME280;15597;50.914;6.638;2023-04-01T02:53:47;98640.91;;;13.81;60.46
28344;BME280;15597;50.914;6.638;2023-04-01T02:56:13;98646.19;;;13.81;59.92
28344;BME280;15597;50.914;6.638;2023-04-01T02:58:38;98644.50;;;13.80;60.24
28344;BME280;15597;50.914;6.638;2023-04-01T03:01:04;98653.13;;;13.82;59.83
28344;BME280;15597;50.914;6.638;2023-04-01T03:03:30;98646.78;;;13.85;59.73
28344;BME280;15597;50.914;6.638;2023-04-01T03:05:56;98658.38;;;13.82;60.21
28344;BME280;15597;50.914;6.638;2023-04-01T03:08:24;98653.13;;;13.82;60.28
28344;BME280;15597;50.914;6.638;2023-04-01T03:10:49;98662.69;;;13.83;60.00
28344;BME280;15597;50.914;6.638;2023-04-01T03:13:16;98664.38;;;13.84;60.13
28344;BME280;15597;50.914;6.638;2023-04-01T03:15:42;98673.94;;;13.85;59.97
28344;BME280;15597;50.914;6.638;2023-04-01T03:18:08;98664.25;;;13.86;59.96
28344;BME280;15597;50.914;6.638;2023-04-01T03:20:33;98666.06;;;13.85;59.87
28344;BME280;15597;50.914;6.638;2023-04-01T03:22:59;98673.94;;;13.85;60.12
28344;BME280;15597;50.914;6.638;2023-04-01T03:25:26;98672.13;;;13.86;60.16
28344;BME280;15597;50.914;6.638;2023-04-01T03:27:53;98672.06;;;13.87;59.77
28344;BME280;15597;50.914;6.638;2023-04-01T03:30:21;98674.78;;;13.86;60.15
28344;BME280;15597;50.914;6.638;2023-04-01T03:32:49;98672.88;;;13.88;60.00
28344;BME280;15597;50.914;6.638;2023-04-01T03:35:15;98675.50;;;13.88;59.91
28344;BME280;15597;50.914;6.638;2023-04-01T03:37:41;98667.81;;;13.85;60.38
28344;BME280;15597;50.914;6.638;2023-04-01T03:40:07;98675.63;;;13.86;59.99
28344;BME280;15597;50.914;6.638;2023-04-01T03:42:33;98677.31;;;13.87;59.66
28344;BME280;15597;50.914;6.638;2023-04-01T03:44:59;98672.88;;;13.88;59.94
28344;BME280;15597;50.914;6.638;2023-04-01T03:47:25;98681.50;;;13.90;60.03
28344;BME280;15597;50.914;6.638;2023-04-01T03:49:50;98668.47;;;13.88;60.15
28344;BME280;15597;50.914;6.638;2023-04-01T03:52:16;98677.09;;;13.91;59.94
28344;BME280;15597;50.914;6.638;2023-04-01T03:54:41;98663.09;;;13.90;59.90
28344;BME280;15597;50.914;6.638;2023-04-01T03:57:08;98668.47;;;13.88;59.60
28344;BME280;15597;50.914;6.638;2023-04-01T03:59:34;98672.78;;;13.90;59.61
28344;BME280;15597;50.914;6.638;2023-04-01T04:02:00;98677.09;;;13.91;59.78
28344;BME280;15597;50.914;6.638;2023-04-01T04:04:27;98675.63;;;13.86;60.02
28344;BME280;15597;50.914;6.638;2023-04-01T04:06:53;98673.94;;;13.85;59.94
28344;BME280;15597;50.914;6.638;2023-04-01T04:09:21;98682.78;;;13.84;60.16
28344;BME280;15597;50.914;6.638;2023-04-01T04:11:46;98675.63;;;13.86;59.93
28344;BME280;15597;50.914;6.638;2023-04-01T04:14:12;98688.03;;;13.84;60.03
28344;BME280;15597;50.914;6.638;2023-04-01T04:16:37;98687.38;;;13.81;60.36
28344;BME280;15597;50.914;6.638;2023-04-01T04:19:04;98689.06;;;13.82;60.26
28344;BME280;15597;50.914;6.638;2023-04-01T04:21:29;98688.97;;;13.83;60.29
28344;BME280;15597;50.914;6.638;2023-04-01T04:23:55;98697.81;;;13.82;60.07
28344;BME280;15597;50.914;6.638;2023-04-01T04:26:21;98694.31;;;13.82;60.45
28344;BME280;15597;50.914;6.638;2023-04-01T04:28:54;98702.13;;;13.83;60.58
28344;BME280;15597;50.914;6.638;2023-04-01T04:31:23;98695.19;;;13.82;60.38
28344;BME280;15597;50.914;6.638;2023-04-01T04:33:50;98702.13;;;13.83;59.79
28344;BME280;15597;50.914;6.638;2023-04-01T04:36:17;98702.13;;;13.83;60.43
28344;BME280;15597;50.914;6.638;2023-04-01T04:38:43;98704.63;;;13.85;60.17
28344;BME280;15597;50.914;6.638;2023-04-01T04:41:13;98702.00;;;13.85;60.16
28344;BME280;15597;50.914;6.638;2023-04-01T04:43:41;98701.91;;;13.86;60.42
28344;BME280;15597;50.914;6.638;2023-04-01T04:46:10;98702.53;;;13.90;60.32
28344;BME280;15597;50.914;6.638;2023-04-01T04:48:36;98705.09;;;13.92;59.90
28344;BME280;15597;50.914;6.638;2023-04-01T04:51:02;98716.53;;;13.91;59.87
28344;BME280;15597;50.914;6.638;2023-04-01T04:53:28;98714.88;;;13.90;60.08
28344;BME280;15597;50.914;6.638;2023-04-01T04:55:54;98714.13;;;13.87;60.37
28344;BME280;15597;50.914;6.638;2023-04-01T04:58:33;98711.69;;;13.84;60.63
28344;BME280;15597;50.914;6.638;2023-04-01T05:01:14;98716.22;;;13.82;60.48
28344;BME280;15597;50.914;6.638;2023-04-01T05:03:41;98721.25;;;13.85;60.60
28344;BME280;15597;50.914;6.638;2023-04-01T05:06:08;98716.75;;;13.87;60.13
28344;BME280;15597;50.914;6.638;2023-04-01T05:08:35;98725.47;;;13.88;60.21
28344;BME280;15597;50.914;6.638;2023-04-01T05:11:02;98729.91;;;13.87;60.61
28344;BME280;15597;50.914;6.638;2023-04-01T05:13:29;98728.97;;;13.74;60.51
28344;BME280;15597;50.914;6.638;2023-04-01T05:15:55;98734.03;;;13.77;60.55
28344;BME280;15597;50.914;6.638;2023-04-01T05:18:21;98730.47;;;13.78;60.61
28344;BME280;15597;50.914;6.638;2023-04-01T05:20:52;98737.59;;;13.76;61.04
28344;BME280;15597;50.914;6.638;2023-04-01T05:23:19;98737.44;;;13.79;60.81
28344;BME280;15597;50.914;6.638;2023-04-01T05:25:49;98744.38;;;13.80;60.49
28344;BME280;15597;50.914;6.638;2023-04-01T05:28:16;98739.88;;;13.82;60.91
28344;BME280;15597;50.914;6.638;2023-04-01T05:30:45;98741.56;;;13.83;60.95
28344;BME280;15597;50.914;6.638;2023-04-01T05:33:21;98737.03;;;13.85;60.73
28344;BME280;15597;50.914;6.638;2023-04-01T05:35:48;98740.59;;;13.84;61.07
28344;BME280;15597;50.914;6.638;2023-04-01T05:38:14;98749.44;;;13.83;60.99
28344;BME280;15597;50.914;6.638;2023-04-01T05:40:40;98747.75;;;13.82;60.66
28344;BME280;15597;50.914;6.638;2023-04-01T05:43:06;98747.75;;;13.82;61.24
28344;BME280;15597;50.914;6.638;2023-04-01T05:45:33;98756.47;;;13.83;60.90
28344;BME280;15597;50.914;6.638;2023-04-01T05:48:22;98750.47;;;13.81;60.77
28344;BME280;15597;50.914;6.638;2023-04-01T05:50:48;98752.25;;;13.80;61.23
28344;BME280;15597;50.914;6.638;2023-04-01T05:53:15;98758.25;;;13.82;60.54
28344;BME280;15597;50.914;6.638;2023-04-01T05:55:42;98752.06;;;13.83;60.79
28344;BME280;15597;50.914;6.638;2023-04-01T05:58:09;98754.69;;;13.83;61.11
28344;BME280;15597;50.914;6.638;2023-04-01T06:00:38;98758.25;;;13.82;60.71
28344;BME280;15597;50.914;6.638;2023-04-01T06:03:04;98758.25;;;13.82;60.93
28344;BME280;15597;50.914;6.638;2023-04-01T06:05:40;98762.88;;;13.79;60.74
28344;BME280;15597;50.914;6.638;2023-04-01T06:30:44;98776.69;;;13.68;61.84
28344;BME280;15597;50.914;6.638;2023-04-01T06:36:31;98784.00;;;13.63;61.92
28344;BME280;15597;50.914;6.638;2023-04-01T06:40:05;98777.44;;;13.55;62.07
28344;BME280;15597;50.914;6.638;2023-04-01T06:45:36;98783.56;;;13.56;62.39
28344;BME280;15597;50.914;6.638;2023-04-01T06:48:54;98786.38;;;13.53;62.35
28344;BME280;15597;50.914;6.638;2023-04-01T06:59:02;98795.50;;;13.47;62.46
28344;BME280;15597;50.914;6.638;2023-04-01T07:01:35;98796.97;;;13.51;62.72
28344;BME280;15597;50.914;6.638;2023-04-01T07:04:09;98796.03;;;13.52;62.40
28344;BME280;15597;50.914;6.638;2023-04-01T07:06:42;98804.78;;;13.53;62.81
28344;BME280;15597;50.914;6.638;2023-04-01T07:09:14;98797.84;;;13.52;62.54
28344;BME280;15597;50.914;6.638;2023-04-01T07:12:04;98804.13;;;13.49;62.89
28344;BME280;15597;50.914;6.638;2023-04-01T07:17:39;98810.22;;;13.50;62.96
28344;BME280;15597;50.914;6.638;2023-04-01T07:20:30;98806.84;;;13.48;63.29
28344;BME280;15597;50.914;6.638;2023-04-01T07:22:59;98817.25;;;13.49;62.87
28344;BME280;15597;50.914;6.638;2023-04-01T07:26:00;98823.56;;;13.47;63.28
28344;BME280;15597;50.914;6.638;2023-04-01T07:28:49;98826.06;;;13.48;63.03
28344;BME280;15597;50.914;6.638;2023-04-01T07:31:45;98834.72;;;13.50;63.42
28344;BME280;15597;50.914;6.638;2023-04-01T07:34:27;98833.75;;;13.51;63.06
28344;BME280;15597;50.914;6.638;2023-04-01T07:42:50;98846.16;;;13.49;63.13
28344;BME280;15597;50.914;6.638;2023-04-01T07:45:36;98846.16;;;13.49;63.01
28344;BME280;15597;50.914;6.638;2023-04-01T07:51:20;98851.22;;;13.52;63.06
28344;BME280;15597;50.914;6.638;2023-04-01T07:56:21;98862.59;;;13.53;63.23
28344;BME280;15597;50.914;6.638;2023-04-01T08:04:30;98873.09;;;13.53;63.73
28344;BME280;15597;50.914;6.638;2023-04-01T08:07:10;98879.19;;;13.53;63.58
28344;BME280;15597;50.914;6.638;2023-04-01T08:10:11;98882.75;;;13.52;63.99
28344;BME280;15597;50.914;6.638;2023-04-01T08:16:35;98891.69;;;13.50;63.59
28344;BME280;15597;50.914;6.638;2023-04-01T08:21:47;98893.25;;;13.52;63.78
28344;BME280;15597;50.914;6.638;2023-04-01T08:26:46;98906.03;;;13.58;63.97
28344;BME280;15597;50.914;6.638;2023-04-01T08:29:35;98901.53;;;13.61;63.62
28344;BME280;15597;50.914;6.638;2023-04-01T08:32:06;98907.72;;;13.59;63.74
28344;BME280;15597;50.914;6.638;2023-04-01T08:34:40;98910.34;;;13.59;63.64
28344;BME280;15597;50.914;6.638;2023-04-01T08:37:28;98916.47;;;13.60;64.06
28344;BME280;15597;50.914;6.638;2023-04-01T08:48:28;98922.91;;;13.54;63.96
28344;BME280;15597;50.914;6.638;2023-04-01T08:54:36;98930.16;;;13.51;64.49
28344;BME280;15597;50.914;6.638;2023-04-01T08:57:11;98928.53;;;13.48;64.46
28344;BME280;15597;50.914;6.638;2023-04-01T09:00:15;98934.75;;;13.47;64.26
28344;BME280;15597;50.914;6.638;2023-04-01T09:03:20;98943.47;;;13.48;64.84
28344;BME280;15597;50.914;6.638;2023-04-01T09:11:04;98951.25;;;13.49;64.84
28344;BME280;15597;50.914;6.638;2023-04-01T09:28:10;98960.06;;;13.48;64.79
28344;BME280;15597;50.914;6.638;2023-04-01T09:31:00;98966.00;;;13.52;64.76
28344;BME280;15597;50.914;6.638;2023-04-01T09:36:27;98977.91;;;13.57;64.71
28344;BME280;15597;50.914;6.638;2023-04-01T09:39:12;98974.47;;;13.57;65.18
28344;BME280;15597;50.914;6.638;2023-04-01T09:44:45;98976.78;;;13.62;64.70
28344;BME280;15597;50.914;6.638;2023-04-01T09:50:13;98988.81;;;13.66;64.40
28344;BME280;15597;50.914;6.638;2023-04-01T10:21:16;99024.53;;;13.84;63.74
28344;BME280;15597;50.914;6.638;2023-04-01T10:29:39;99033.34;;;13.83;63.95
28344;BME280;15597;50.914;6.638;2023-04-01T10:58:21;99043.69;;;13.86;64.15
28344;BME280;15597;50.914;6.638;2023-04-01T11:10:56;99047.63;;;13.94;64.40
28344;BME280;15597;50.914;6.638;2023-04-01T11:16:47;99057.41;;;13.92;64.55
28344;BME280;15597;50.914;6.638;2023-04-01T11:33:14;99078.91;;;13.98;64.43
28344;BME280;15597;50.914;6.638;2023-04-01T11:35:53;99074.50;;;13.99;64.12
28344;BME280;15597;50.914;6.638;2023-04-01T11:39:05;99084.09;;;14.00;64.44
28344;BME280;15597;50.914;6.638;2023-04-01T11:42:16;99087.47;;;14.02;64.10
28344;BME280;15597;50.914;6.638;2023-04-01T11:59:03;99107.59;;;14.32;63.32
28344;BME280;15597;50.914;6.638;2023-04-01T12:12:40;99117.44;;;14.28;64.24
28344;BME280;15597;50.914;6.638;2023-04-01T12:18:05;99115.75;;;14.27;64.16
28344;BME280;15597;50.914;6.638;2023-04-01T12:34:07;99126.31;;;14.42;64.21
28344;BME280;15597;50.914;6.638;2023-04-01T12:44:52;99151.19;;;14.51;63.63
28344;BME280;15597;50.914;6.638;2023-04-01T12:55:19;99152.31;;;14.46;63.54
28344;BME280;15597;50.914;6.638;2023-04-01T13:04:06;99169.44;;;14.54;63.54
28344;BME280;15597;50.914;6.638;2023-04-01T13:12:19;99165.13;;;14.53;63.28
28344;BME280;15597;50.914;6.638;2023-04-01T13:20:06;99182.22;;;14.60;63.14
28344;BME280;15597;50.914;6.638;2023-04-01T13:25:39;99186.72;;;14.58;63.07
28344;BME280;15597;50.914;6.638;2023-04-01T13:33:30;99190.13;;;14.60;63.26
28344;BME280;15597;50.914;6.638;2023-04-01T13:36:08;99189.94;;;14.63;62.82
28344;BME280;15597;50.914;6.638;2023-04-01T13:44:17;99199.81;;;14.59;62.58
28344;BME280;15597;50.914;6.638;2023-04-01T14:03:27;99221.13;;;14.40;63.70
28344;BME280;15597;50.914;6.638;2023-04-01T14:06:09;99219.25;;;14.42;63.84
28344;BME280;15597;50.914;6.638;2023-04-01T14:19:29;99229.94;;;14.39;64.47
28344;BME280;15597;50.914;6.638;2023-04-01T14:22:32;99240.66;;;14.36;63.97
28344;BME280;15597;50.914;6.638;2023-04-01T14:25:21;99232.50;;;14.41;64.21
28344;BME280;15597;50.914;6.638;2023-04-01T14:27:57;99235.91;;;14.43;64.30
28344;BME280;15597;50.914;6.638;2023-04-01T14:39:19;99249.88;;;14.43;64.03
28344;BME280;15597;50.914;6.638;2023-04-01T14:47:27;99251.56;;;14.44;64.25
28344;BME280;15597;50.914;6.638;2023-04-01T14:51:03;99256.84;;;14.44;64.44
28344;BME280;15597;50.914;6.638;2023-04-01T14:55:51;99261.91;;;14.48;64.85
28344;BME280;15597;50.914;6.638;2023-04-01T14:58:19;99266.25;;;14.49;64.67
28344;BME280;15597;50.914;6.638;2023-04-01T15:09:28;99278.00;;;14.43;64.48
28344;BME280;15597;50.914;6.638;2023-04-01T15:12:15;99276.97;;;14.45;64.72
28344;BME280;15597;50.914;6.638;2023-04-01T15:15:23;99279.78;;;14.42;64.87
28344;BME280;15597;50.914;6.638;2023-04-01T15:18:02;99289.34;;;14.43;64.33
28344;BME280;15597;50.914;6.638;2023-04-01T15:31:15;99303.44;;;14.42;64.09
28344;BME280;15597;50.914;6.638;2023-04-01T15:36:56;99301.41;;;14.48;64.00
28344;BME280;15597;50.914;6.638;2023-04-01T15:45:23;99308.28;;;14.50;63.83
28344;BME280;15597;50.914;6.638;2023-04-01T15:53:45;99327.53;;;14.51;64.05
28344;BME280;15597;50.914;6.638;2023-04-01T15:56:41;99331.28;;;14.46;64.13
28344;BME280;15597;50.914;6.638;2023-04-01T16:02:22;99335.03;;;14.42;64.05
28344;BME280;15597;50.914;6.638;2023-04-01T16:05:00;99344.03;;;14.38;64.20
28344;BME280;15597;50.914;6.638;2023-04-01T16:21:35;99365.03;;;14.24;64.38
28344;BME280;15597;50.914;6.638;2023-04-01T16:24:15;99354.50;;;14.24;64.53
28344;BME280;15597;50.914;6.638;2023-04-01T16:26:44;99360.53;;;14.26;64.40
28344;BME280;15597;50.914;6.638;2023-04-01T16:32:41;99369.53;;;14.22;64.70
28344;BME280;15597;50.914;6.638;2023-04-01T16:38:12;99378.34;;;14.21;64.39
28344;BME280;15597;50.914;6.638;2023-04-01T16:40:46;99381.00;;;14.21;64.45
28344;BME280;15597;50.914;6.638;2023-04-01T16:43:58;99378.34;;;14.21;64.68
28344;BME280;15597;50.914;6.638;2023-04-01T17:02:10;99418.16;;;14.14;64.24
28344;BME280;15597;50.914;6.638;2023-04-01T17:04:47;99411.97;;;14.15;64.26
28344;BME280;15597;50.914;6.638;2023-04-01T17:10:03;99421.78;;;14.12;64.79
28344;BME280;15597;50.914;6.638;2023-04-01T17:12:50;99427.22;;;14.09;64.86
28344;BME280;15597;50.914;6.638;2023-04-01T17:17:58;99425.53;;;14.08;64.81
28344;BME280;15597;50.914;6.638;2023-04-01T17:20:39;99427.66;;;14.01;64.52
28344;BME280;15597;50.914;6.638;2023-04-01T17:25:59;99446.22;;;13.98;64.80
28344;BME280;15597;50.914;6.638;2023-04-01T17:31:14;99456.94;;;13.95;64.81
28344;BME280;15597;50.914;6.638;2023-04-01T17:36:36;99461.03;;;13.83;65.31
28344;BME280;15597;50.914;6.638;2023-04-01T17:41:54;99462.84;;;13.82;64.85
28344;BME280;15597;50.914;6.638;2023-04-01T17:44:53;99470.72;;;13.82;65.15
28344;BME280;15597;50.914;6.638;2023-04-01T17:47:39;99478.44;;;13.85;64.89
28344;BME280;15597;50.914;6.638;2023-04-01T17:50:23;99483.53;;;13.88;64.51
28344;BME280;15597;50.914;6.638;2023-04-01T17:53:09;99487.72;;;13.93;64.60
28344;BME280;15597;50.914;6.638;2023-04-01T18:04:14;99502.41;;;14.13;64.15
28344;BME280;15597;50.914;6.638;2023-04-01T18:07:15;99500.63;;;14.13;64.25
28344;BME280;15597;50.914;6.638;2023-04-01T18:10:20;99504.97;;;14.14;64.06
28344;BME280;15597;50.914;6.638;2023-04-01T18:16:08;99507.00;;;14.09;63.78
28344;BME280;15597;50.914;6.638;2023-04-01T18:18:58;99512.09;;;14.12;63.96
28344;BME280;15597;50.914;6.638;2023-04-01T18:21:43;99520.91;;;14.11;63.80
28344;BME280;15597;50.914;6.638;2023-04-01T18:24:33;99529.75;;;14.10;63.52
28344;BME280;15597;50.914;6.638;2023-04-01T18:32:15;99537.22;;;14.18;63.58
28344;BME280;15597;50.914;6.638;2023-04-01T18:38:11;99541.09;;;14.11;63.72
28344;BME280;15597;50.914;6.638;2023-04-01T18:52:43;99560.09;;;14.00;63.59
28344;BME280;15597;50.914;6.638;2023-04-01T18:55:33;99554.84;;;14.00;63.75
28344;BME280;15597;50.914;6.638;2023-04-01T18:58:24;99563.72;;;13.97;63.73
28344;BME280;15597;50.914;6.638;2023-04-01T19:01:07;99572.31;;;14.01;63.58
28344;BME280;15597;50.914;6.638;2023-04-01T19:07:32;99577.88;;;13.95;63.97
28344;BME280;15597;50.914;6.638;2023-04-01T19:09:44;99588.41;;;13.95;64.11
28344;BME280;15597;50.914;6.638;2023-04-01T19:26:00;99598.94;;;13.95;63.59
28344;BME280;15597;50.914;6.638;2023-04-01T19:34:27;99605.72;;;13.99;63.51
28344;BME280;15597;50.914;6.638;2023-04-01T19:37:39;99604.97;;;13.97;63.77
28344;BME280;15597;50.914;6.638;2023-04-01T19:43:08;99612.06;;;13.95;63.66
28344;BME280;15597;50.914;6.638;2023-04-01T19:45:54;99614.88;;;13.92;63.28
28344;BME280;15597;50.914;6.638;2023-04-01T19:48:36;99614.94;;;13.90;63.30
28344;BME280;15597;50.914;6.638;2023-04-01T19:51:11;99617.41;;;13.93;63.91
28344;BME280;15597;50.914;6.638;2023-04-01T19:53:59;99616.41;;;13.96;63.71
28344;BME280;15597;50.914;6.638;2023-04-01T19:56:36;99618.28;;;13.94;63.58
28344;BME280;15597;50.914;6.638;2023-04-01T19:59:34;99620.91;;;13.94;63.48
28344;BME280;15597;50.914;6.638;2023-04-01T20:04:40;99623.53;;;13.94;63.55
28344;BME280;15597;50.914;6.638;2023-04-01T20:07:20;99623.53;;;13.94;63.29
28344;BME280;15597;50.914;6.638;2023-04-01T20:10:09;99634.03;;;13.94;63.47
28344;BME280;15597;50.914;6.638;2023-04-01T20:12:58;99629.78;;;13.91;63.72
28344;BME280;15597;50.914;6.638;2023-04-01T20:15:35;99628.78;;;13.94;63.52
28344;BME280;15597;50.914;6.638;2023-04-01T20:21:45;99644.72;;;13.91;63.59
28344;BME280;15597;50.914;6.638;2023-04-01T20:24:25;99644.72;;;13.91;63.40
28344;BME280;15597;50.914;6.638;2023-04-01T20:27:03;99652.53;;;13.92;63.58
28344;BME280;15597;50.914;6.638;2023-04-01T20:29:47;99654.94;;;13.97;63.62
28344;BME280;15597;50.914;6.638;2023-04-01T20:32:49;99658.50;;;13.96;63.27
28344;BME280;15597;50.914;6.638;2023-04-01T20:35:24;99668.59;;;13.86;63.63
28344;BME280;15597;50.914;6.638;2023-04-01T20:40:32;99676.19;;;13.92;63.42
28344;BME280;15597;50.914;6.638;2023-04-01T20:46:04;99672.31;;;13.82;63.51
28344;BME280;15597;50.914;6.638;2023-04-01T20:48:55;99673.34;;;13.79;63.34
28344;BME280;15597;50.914;6.638;2023-04-01T20:51:29;99677.66;;;13.80;63.36
28344;BME280;15597;50.914;6.638;2023-04-01T20:57:00;99682.00;;;13.81;63.52
28344;BME280;15597;50.914;6.638;2023-04-01T20:59:56;99685.63;;;13.79;63.25
28344;BME280;15597;50.914;6.638;2023-04-01T21:20:46;99698.97;;;13.74;63.62
28344;BME280;15597;50.914;6.638;2023-04-01T22:06:47;99747.38;;;13.70;63.62
28344;BME280;15597;50.914;6.638;2023-04-01T22:11:48;99742.13;;;13.70;63.46
28344;BME280;15597;50.914;6.638;2023-04-01T22:14:21;99747.22;;;13.73;63.53
28344;BME280;15597;50.914;6.638;2023-04-01T22:16:58;99747.22;;;13.73;63.31
28344;BME280;15597;50.914;6.638;2023-04-01T22:22:27;99764.84;;;13.71;63.20
28344;BME280;15597;50.914;6.638;2023-04-01T22:27:41;99776.22;;;13.71;63.64
28344;BME280;15597;50.914;6.638;2023-04-01T22:30:15;99777.22;;;13.69;63.33
28344;BME280;15597;50.914;6.638;2023-04-01T22:32:50;99777.34;;;13.66;63.52
28344;BME280;15597;50.914;6.638;2023-04-01T22:35:23;99782.47;;;13.69;63.53
28344;BME280;15597;50.914;6.638;2023-04-01T22:41:05;99788.16;;;13.59;63.76
28344;BME280;15597;50.914;6.638;2023-04-01T22:54:29;99808.78;;;13.50;64.08
28344;BME280;15597;50.914;6.638;2023-04-01T22:57:02;99815.66;;;13.52;63.60
28344;BME280;15597;50.914;6.638;2023-04-01T22:59:39;99816.44;;;13.54;63.60
28344;BME280;15597;50.914;6.638;2023-04-01T23:02:16;99822.47;;;13.56;63.53
28344;BME280;15597;50.914;6.638;2023-04-01T23:04:52;99828.66;;;13.55;63.11
28344;BME280;15597;50.914;6.638;2023-04-01T23:07:48;99841.16;;;13.50;63.54
28344;BME280;15597;50.914;6.638;2023-04-01T23:13:05;99843.00;;;13.48;63.33
28344;BME280;15597;50.914;6.638;2023-04-01T23:15:36;99843.00;;;13.48;63.50
28344;BME280;15597;50.914;6.638;2023-04-01T23:18:21;99851.94;;;13.44;63.34
28344;BME280;15597;50.914;6.638;2023-04-01T23:26:21;99867.97;;;13.38;63.36
28344;BME280;15597;50.914;6.638;2023-04-01T23:28:53;99874.00;;;13.40;63.65
28344;BME280;15597;50.914;6.638;2023-04-01T23:31:46;99871.50;;;13.37;63.66
28344;BME280;15597;50.914;6.638;2023-04-01T23:36:41;99882.16;;;13.34;63.63
28344;BME280;15597;50.914;6.638;2023-04-01T23:39:40;99882.28;;;13.30;63.57
28344;BME280;15597;50.914;6.638;2023-04-01T23:42:18;99885.16;;;13.26;63.65
28344;BME280;15597;50.914;6.638;2023-04-01T23:44:47;99896.50;;;13.26;63.56
28344;BME280;15597;50.914;6.638;2023-04-01T23:47:18;99904.56;;;13.22;63.22